sensor_id;sensor_type;location;lat;lon;timestamp;temperature;humidity
1075;DHT22;526;51.392;12.448;2023-06-22T04:02:05;19.30;97.30
1075;DHT22;526;51.392;12.448;2023-06-22T04:04:33;19.40;97.30
1075;DHT22;526;51.392;12.448;2023-06-22T04:07:02;19.40;97.30
1075;DHT22;526;51.392;12.448;2023-06-22T04:09:35;19.40;97.30
1075;DHT22;526;51.392;12.448;2023-06-22T04:12:04;19.40;97.30
1075;DHT22;526;51.392;12.448;2023-06-22T04:14:33;19.40;97.30
1075;DHT22;526;51.392;12.448;2023-06-22T04:17:04;19.40;97.30
1075;DHT22;526;51.392;12.448;2023-06-22T04:19:37;19.40;97.30
1075;DHT22;526;51.392;12.448;2023-06-22T04:22:05;19.50;97.30
1075;DHT22;526;51.392;12.448;2023-06-22T04:24:35;19.50;97.30
1075;DHT22;526;51.392;12.448;2023-06-22T04:27:02;19.50;97.30
1075;DHT22;526;51.392;12.448;2023-06-22T04:29:31;19.60;97.30
1075;DHT22;526;51.392;12.448;2023-06-22T04:32:16;19.60;97.30
1075;DHT22;526;51.392;12.448;2023-06-22T04:34:57;19.70;97.30
1075;DHT22;526;51.392;12.448;2023-06-22T04:37:25;19.70;97.30
1075;DHT22;526;51.392;12.448;2023-06-22T04:39:53;19.80;97.30
1075;DHT22;526;51.392;12.448;2023-06-22T04:42:27;19.80;97.30
1075;DHT22;526;51.392;12.448;2023-06-22T04:44:53;19.90;97.30
1075;DHT22;526;51.392;12.448;2023-06-22T04:47:18;19.90;97.30
1075;DHT22;526;51.392;12.448;2023-06-22T04:49:44;20.00;97.30
1075;DHT22;526;51.392;12.448;2023-06-22T04:52:12;20.00;97.30
1075;DHT22;526;51.392;12.448;2023-06-22T04:54:45;20.00;97.30
1075;DHT22;526;51.392;12.448;2023-06-22T04:57:13;20.10;97.30
1075;DHT22;526;51.392;12.448;2023-06-22T04:59:41;20.10;97.30
1075;DHT22;526;51.392;12.448;2023-06-22T05:02:07;20.20;97.30
1075;DHT22;526;51.392;12.448;2023-06-22T05:04:34;20.20;97.30
1075;DHT22;526;51.392;12.448;2023-06-22T05:07:04;20.30;97.30
1075;DHT22;526;51.392;12.448;2023-06-22T05:09:35;20.30;97.30
1075;DHT22;526;51.392;12.448;2023-06-22T05:12:04;20.40;97.30
1075;DHT22;526;51.392;12.448;2023-06-22T05:14:37;20.40;97.30
1075;DHT22;526;51.392;12.448;2023-06-22T05:17:13;20.50;97.30
1075;DHT22;526;51.392;12.448;2023-06-22T05:19:45;20.50;97.30
1075;DHT22;526;51.392;12.448;2023-06-22T05:22:16;20.60;97.30
1075;DHT22;526;51.392;12.448;2023-06-22T05:24:44;20.60;97.30
1075;DHT22;526;51.392;12.448;2023-06-22T05:27:15;20.60;97.30
1075;DHT22;526;51.392;12.448;2023-06-22T05:29:44;20.70;97.30
1075;DHT22;526;51.392;12.448;2023-06-22T05:32:17;20.70;97.30
1075;DHT22;526;51.392;12.448;2023-06-22T05:34:44;20.80;97.30
1075;DHT22;526;51.392;12.448;2023-06-22T05:37:35;20.80;97.30
1075;DHT22;526;51.392;12.448;2023-06-22T05:40:04;20.90;97.30
1075;DHT22;526;51.392;12.448;2023-06-22T05:42:37;20.90;97.30
1075;DHT22;526;51.392;12.448;2023-06-22T05:45:15;21.00;97.30
1075;DHT22;526;51.392;12.448;2023-06-22T05:47:43;21.00;97.30
1075;DHT22;526;51.392;12.448;2023-06-22T05:50:16;21.10;97.30
1075;DHT22;526;51.392;12.448;2023-06-22T05:52:44;21.10;97.30
1075;DHT22;526;51.392;12.448;2023-06-22T05:55:25;21.10;97.30
1075;DHT22;526;51.392;12.448;2023-06-22T05:57:53;21.20;97.30
1075;DHT22;526;51.392;12.448;2023-06-22T06:02:47;21.30;97.30
1075;DHT22;526;51.392;12.448;2023-06-22T06:05:14;21.30;97.30
1075;DHT22;526;51.392;12.448;2023-06-22T06:07:40;21.40;97.30
1075;DHT22;526;51.392;12.448;2023-06-22T06:10:06;21.50;97.30
1075;DHT22;526;51.392;12.448;2023-06-22T06:12:32;21.60;97.30
1075;DHT22;526;51.392;12.448;2023-06-22T06:14:58;21.70;97.30
1075;DHT22;526;51.392;12.448;2023-06-22T06:17:23;21.70;97.30
1075;DHT22;526;51.392;12.448;2023-06-22T06:19:49;21.80;97.30
1075;DHT22;526;51.392;12.448;2023-06-22T06:22:14;21.90;97.30
1075;DHT22;526;51.392;12.448;2023-06-22T06:24:40;22.00;97.30
1075;DHT22;526;51.392;12.448;2023-06-22T06:27:05;22.10;97.30
1075;DHT22;526;51.392;12.448;2023-06-22T06:29:34;22.20;97.30
1075;DHT22;526;51.392;12.448;2023-06-22T06:31:59;22.30;97.30
1075;DHT22;526;51.392;12.448;2023-06-22T06:34:25;22.40;97.30
1075;DHT22;526;51.392;12.448;2023-06-22T06:36:50;22.40;97.30
1075;DHT22;526;51.392;12.448;2023-06-22T06:39:16;22.50;97.30
1075;DHT22;526;51.392;12.448;2023-06-22T06:41:42;22.60;97.30
1075;DHT22;526;51.392;12.448;2023-06-22T06:44:07;22.60;97.30
1075;DHT22;526;51.392;12.448;2023-06-22T06:46:33;22.70;97.30
1075;DHT22;526;51.392;12.448;2023-06-22T06:48:58;22.80;97.30
1075;DHT22;526;51.392;12.448;2023-06-22T06:51:24;22.80;97.30
1075;DHT22;526;51.392;12.448;2023-06-22T06:53:49;22.80;97.30
1075;DHT22;526;51.392;12.448;2023-06-22T06:56:15;22.90;97.30
1075;DHT22;526;51.392;12.448;2023-06-22T06:58:41;22.90;97.30
1075;DHT22;526;51.392;12.448;2023-06-22T07:01:11;23.00;97.30
1075;DHT22;526;51.392;12.448;2023-06-22T07:03:37;23.10;97.30
1075;DHT22;526;51.392;12.448;2023-06-22T07:06:02;23.20;97.30
1075;DHT22;526;51.392;12.448;2023-06-22T07:08:28;23.30;97.30
1075;DHT22;526;51.392;12.448;2023-06-22T07:10:54;23.40;97.30
1075;DHT22;526;51.392;12.448;2023-06-22T07:13:19;23.40;97.30
1075;DHT22;526;51.392;12.448;2023-06-22T07:15:45;23.50;97.30
1075;DHT22;526;51.392;12.448;2023-06-22T07:18:10;23.50;97.30
1075;DHT22;526;51.392;12.448;2023-06-22T07:20:36;23.60;97.30
1075;DHT22;526;51.392;12.448;2023-06-22T07:23:01;23.70;97.30
1075;DHT22;526;51.392;12.448;2023-06-22T07:25:27;23.70;97.30
1075;DHT22;526;51.392;12.448;2023-06-22T07:28:02;23.80;97.30
1075;DHT22;526;51.392;12.448;2023-06-22T07:30:29;23.80;97.30
1075;DHT22;526;51.392;12.448;2023-06-22T07:32:55;23.90;97.30
1075;DHT22;526;51.392;12.448;2023-06-22T07:35:20;24.00;97.30
1075;DHT22;526;51.392;12.448;2023-06-22T07:37:46;24.10;97.30
1075;DHT22;526;51.392;12.448;2023-06-22T07:40:11;24.20;97.30
1075;DHT22;526;51.392;12.448;2023-06-22T07:42:37;24.30;97.30
1075;DHT22;526;51.392;12.448;2023-06-22T07:45:03;24.40;97.30
1075;DHT22;526;51.392;12.448;2023-06-22T07:47:29;24.50;97.30
1075;DHT22;526;51.392;12.448;2023-06-22T07:49:58;24.70;97.30
1075;DHT22;526;51.392;12.448;2023-06-22T07:52:24;24.80;97.30
1075;DHT22;526;51.392;12.448;2023-06-22T07:54:51;24.90;97.30
1075;DHT22;526;51.392;12.448;2023-06-22T07:57:16;25.10;97.30
1075;DHT22;526;51.392;12.448;2023-06-22T07:59:42;25.20;97.30
1075;DHT22;526;51.392;12.448;2023-06-22T08:02:09;25.30;97.30
1075;DHT22;526;51.392;12.448;2023-06-22T08:04:35;25.40;97.30
1075;DHT22;526;51.392;12.448;2023-06-22T08:07:01;25.50;97.30
1075;DHT22;526;51.392;12.448;2023-06-22T08:09:31;25.50;97.30
1075;DHT22;526;51.392;12.448;2023-06-22T08:11:57;25.60;97.30
1075;DHT22;526;51.392;12.448;2023-06-22T08:14:25;25.70;97.30
1075;DHT22;526;51.392;12.448;2023-06-22T08:16:50;25.70;97.30
1075;DHT22;526;51.392;12.448;2023-06-22T08:19:16;25.80;97.30
1075;DHT22;526;51.392;12.448;2023-06-22T08:21:42;25.90;96.70
1075;DHT22;526;51.392;12.448;2023-06-22T08:24:08;26.00;96.90
1075;DHT22;526;51.392;12.448;2023-06-22T08:26:33;26.10;96.90
1075;DHT22;526;51.392;12.448;2023-06-22T08:29:05;26.20;96.70
1075;DHT22;526;51.392;12.448;2023-06-22T08:31:31;26.30;96.20
1075;DHT22;526;51.392;12.448;2023-06-22T08:33:59;26.40;95.10
1075;DHT22;526;51.392;12.448;2023-06-22T08:36:25;26.40;95.50
1075;DHT22;526;51.392;12.448;2023-06-22T08:38:51;26.50;95.30
1075;DHT22;526;51.392;12.448;2023-06-22T08:41:17;26.60;94.70
1075;DHT22;526;51.392;12.448;2023-06-22T08:43:44;26.60;94.50
1075;DHT22;526;51.392;12.448;2023-06-22T08:46:12;26.60;93.10
1075;DHT22;526;51.392;12.448;2023-06-22T08:48:37;26.70;93.60
1075;DHT22;526;51.392;12.448;2023-06-22T08:51:04;26.60;93.60
1075;DHT22;526;51.392;12.448;2023-06-22T08:53:30;26.60;93.70
1075;DHT22;526;51.392;12.448;2023-06-22T08:55:55;26.60;94.00
1075;DHT22;526;51.392;12.448;2023-06-22T08:58:20;26.70;93.60
1075;DHT22;526;51.392;12.448;2023-06-22T09:00:47;26.70;93.10
1075;DHT22;526;51.392;12.448;2023-06-22T09:03:13;26.70;93.00
1075;DHT22;526;51.392;12.448;2023-06-22T09:05:38;26.70;92.30
1075;DHT22;526;51.392;12.448;2023-06-22T09:08:04;26.80;92.20
1075;DHT22;526;51.392;12.448;2023-06-22T09:10:30;26.80;92.50
1075;DHT22;526;51.392;12.448;2023-06-22T09:12:56;26.90;92.60
1075;DHT22;526;51.392;12.448;2023-06-22T09:15:22;27.00;92.60
1075;DHT22;526;51.392;12.448;2023-06-22T09:17:47;27.10;92.70
1075;DHT22;526;51.392;12.448;2023-06-22T09:20:13;27.20;92.20
1075;DHT22;526;51.392;12.448;2023-06-22T09:22:38;27.20;92.30
1075;DHT22;526;51.392;12.448;2023-06-22T09:25:04;27.30;91.20
1075;DHT22;526;51.392;12.448;2023-06-22T09:27:30;27.30;91.30
1075;DHT22;526;51.392;12.448;2023-06-22T09:29:56;27.30;90.70
1075;DHT22;526;51.392;12.448;2023-06-22T09:32:24;27.40;90.60
1075;DHT22;526;51.392;12.448;2023-06-22T09:34:50;27.50;90.80
1075;DHT22;526;51.392;12.448;2023-06-22T09:37:15;27.60;90.00
1075;DHT22;526;51.392;12.448;2023-06-22T09:39:41;27.70;90.50
1075;DHT22;526;51.392;12.448;2023-06-22T09:42:06;27.70;88.90
1075;DHT22;526;51.392;12.448;2023-06-22T09:44:32;27.80;89.60
1075;DHT22;526;51.392;12.448;2023-06-22T09:46:58;27.90;88.70
1075;DHT22;526;51.392;12.448;2023-06-22T09:49:23;28.00;88.70
1075;DHT22;526;51.392;12.448;2023-06-22T09:51:49;28.00;89.40
1075;DHT22;526;51.392;12.448;2023-06-22T09:54:16;28.10;89.40
1075;DHT22;526;51.392;12.448;2023-06-22T09:56:41;28.10;88.40
1075;DHT22;526;51.392;12.448;2023-06-22T09:59:07;28.10;88.80
1075;DHT22;526;51.392;12.448;2023-06-22T10:01:33;28.10;88.40
1075;DHT22;526;51.392;12.448;2023-06-22T10:03:58;28.10;88.20
1075;DHT22;526;51.392;12.448;2023-06-22T10:06:24;28.10;88.50
1075;DHT22;526;51.392;12.448;2023-06-22T10:08:51;28.00;88.60
1075;DHT22;526;51.392;12.448;2023-06-22T10:11:16;28.00;89.50
1075;DHT22;526;51.392;12.448;2023-06-22T10:13:42;28.10;90.40
1075;DHT22;526;51.392;12.448;2023-06-22T10:16:11;28.10;89.80
1075;DHT22;526;51.392;12.448;2023-06-22T10:18:36;28.20;89.50
1075;DHT22;526;51.392;12.448;2023-06-22T10:21:02;28.30;88.80
1075;DHT22;526;51.392;12.448;2023-06-22T10:23:27;28.40;87.20
1075;DHT22;526;51.392;12.448;2023-06-22T10:25:53;28.40;87.50
1075;DHT22;526;51.392;12.448;2023-06-22T10:28:18;28.50;87.80
1075;DHT22;526;51.392;12.448;2023-06-22T10:30:44;28.60;88.10
1075;DHT22;526;51.392;12.448;2023-06-22T10:33:10;28.70;86.90
1075;DHT22;526;51.392;12.448;2023-06-22T10:35:36;28.80;85.40
1075;DHT22;526;51.392;12.448;2023-06-22T10:38:05;28.90;85.50
1075;DHT22;526;51.392;12.448;2023-06-22T10:40:31;29.00;86.20
1075;DHT22;526;51.392;12.448;2023-06-22T10:42:57;29.10;86.50
1075;DHT22;526;51.392;12.448;2023-06-22T10:45:23;29.20;86.90
1075;DHT22;526;51.392;12.448;2023-06-22T10:47:48;29.30;86.50
1075;DHT22;526;51.392;12.448;2023-06-22T10:50:14;29.40;86.10
1075;DHT22;526;51.392;12.448;2023-06-22T10:52:40;29.40;85.90
1075;DHT22;526;51.392;12.448;2023-06-22T10:55:08;29.50;86.50
1075;DHT22;526;51.392;12.448;2023-06-22T10:57:33;29.60;85.50
1075;DHT22;526;51.392;12.448;2023-06-22T10:59:59;29.60;84.90
1075;DHT22;526;51.392;12.448;2023-06-22T11:02:24;29.70;85.10
1075;DHT22;526;51.392;12.448;2023-06-22T11:04:50;29.80;85.80
1075;DHT22;526;51.392;12.448;2023-06-22T11:07:16;29.90;85.60
1075;DHT22;526;51.392;12.448;2023-06-22T11:09:43;29.90;83.60
1075;DHT22;526;51.392;12.448;2023-06-22T11:12:09;29.80;82.90
1075;DHT22;526;51.392;12.448;2023-06-22T11:14:34;29.70;83.30
1075;DHT22;526;51.392;12.448;2023-06-22T11:17:00;29.70;84.00
1075;DHT22;526;51.392;12.448;2023-06-22T11:19:25;29.70;84.20
1075;DHT22;526;51.392;12.448;2023-06-22T11:21:51;29.80;84.50
1075;DHT22;526;51.392;12.448;2023-06-22T11:24:17;29.80;84.30
1075;DHT22;526;51.392;12.448;2023-06-22T11:26:43;29.80;83.30
1075;DHT22;526;51.392;12.448;2023-06-22T11:29:09;29.90;83.10
1075;DHT22;526;51.392;12.448;2023-06-22T11:31:35;30.00;84.10
1075;DHT22;526;51.392;12.448;2023-06-22T11:34:01;30.20;82.80
1075;DHT22;526;51.392;12.448;2023-06-22T11:36:27;30.20;81.60
1075;DHT22;526;51.392;12.448;2023-06-22T11:38:52;30.20;81.00
1075;DHT22;526;51.392;12.448;2023-06-22T11:41:18;30.20;80.90
1075;DHT22;526;51.392;12.448;2023-06-22T11:43:44;30.20;81.20
1075;DHT22;526;51.392;12.448;2023-06-22T11:46:10;30.30;82.10
1075;DHT22;526;51.392;12.448;2023-06-22T11:48:36;30.40;82.30
1075;DHT22;526;51.392;12.448;2023-06-22T11:51:02;30.60;81.20
1075;DHT22;526;51.392;12.448;2023-06-22T11:53:28;30.70;81.90
1075;DHT22;526;51.392;12.448;2023-06-22T11:55:55;30.80;80.60
1075;DHT22;526;51.392;12.448;2023-06-22T11:58:21;30.70;80.60
1075;DHT22;526;51.392;12.448;2023-06-22T12:00:47;30.80;80.80
1075;DHT22;526;51.392;12.448;2023-06-22T12:03:12;30.80;80.40
1075;DHT22;526;51.392;12.448;2023-06-22T12:05:40;30.90;80.50
1075;DHT22;526;51.392;12.448;2023-06-22T12:08:06;30.90;80.60
1075;DHT22;526;51.392;12.448;2023-06-22T12:10:31;30.90;81.70
1075;DHT22;526;51.392;12.448;2023-06-22T12:12:57;31.00;81.30
1075;DHT22;526;51.392;12.448;2023-06-22T12:15:25;31.20;80.10
1075;DHT22;526;51.392;12.448;2023-06-22T12:17:51;31.20;80.90
1075;DHT22;526;51.392;12.448;2023-06-22T12:20:16;31.20;80.60
1075;DHT22;526;51.392;12.448;2023-06-22T12:22:42;31.20;81.80
1075;DHT22;526;51.392;12.448;2023-06-22T12:25:08;31.40;81.80
1075;DHT22;526;51.392;12.448;2023-06-22T12:27:34;31.50;81.60
1075;DHT22;526;51.392;12.448;2023-06-22T12:30:00;31.70;80.30
1075;DHT22;526;51.392;12.448;2023-06-22T12:32:26;31.80;80.20
1075;DHT22;526;51.392;12.448;2023-06-22T12:34:51;31.90;80.70
1075;DHT22;526;51.392;12.448;2023-06-22T12:37:17;32.00;78.80
1075;DHT22;526;51.392;12.448;2023-06-22T12:39:43;32.10;79.30
1075;DHT22;526;51.392;12.448;2023-06-22T12:42:08;32.20;79.40
1075;DHT22;526;51.392;12.448;2023-06-22T12:44:35;32.20;78.70
1075;DHT22;526;51.392;12.448;2023-06-22T12:47:01;32.30;78.40
1075;DHT22;526;51.392;12.448;2023-06-22T12:49:26;32.30;78.50
1075;DHT22;526;51.392;12.448;2023-06-22T12:51:52;32.40;78.40
1075;DHT22;526;51.392;12.448;2023-06-22T12:54:17;32.60;79.10
1075;DHT22;526;51.392;12.448;2023-06-22T12:56:43;32.60;77.90
1075;DHT22;526;51.392;12.448;2023-06-22T12:59:10;32.70;77.50
1075;DHT22;526;51.392;12.448;2023-06-22T13:01:36;32.70;77.90
1075;DHT22;526;51.392;12.448;2023-06-22T13:04:02;32.80;78.60
1075;DHT22;526;51.392;12.448;2023-06-22T13:06:28;32.80;78.00
1075;DHT22;526;51.392;12.448;2023-06-22T13:08:53;32.70;78.00
1075;DHT22;526;51.392;12.448;2023-06-22T13:11:19;32.50;78.20
1075;DHT22;526;51.392;12.448;2023-06-22T13:13:45;32.30;78.10
1075;DHT22;526;51.392;12.448;2023-06-22T13:16:11;32.10;78.20
1075;DHT22;526;51.392;12.448;2023-06-22T13:18:36;32.10;78.70
1075;DHT22;526;51.392;12.448;2023-06-22T13:21:03;32.10;78.60
1075;DHT22;526;51.392;12.448;2023-06-22T13:23:28;32.10;79.20
1075;DHT22;526;51.392;12.448;2023-06-22T13:25:54;32.20;78.30
1075;DHT22;526;51.392;12.448;2023-06-22T13:28:19;32.30;78.00
1075;DHT22;526;51.392;12.448;2023-06-22T13:30:46;32.40;78.40
1075;DHT22;526;51.392;12.448;2023-06-22T13:33:15;32.50;79.60
1075;DHT22;526;51.392;12.448;2023-06-22T13:35:42;32.70;79.20
1075;DHT22;526;51.392;12.448;2023-06-22T13:38:10;32.90;78.50
1075;DHT22;526;51.392;12.448;2023-06-22T13:40:36;33.10;79.10
1075;DHT22;526;51.392;12.448;2023-06-22T13:43:03;33.20;77.90
1075;DHT22;526;51.392;12.448;2023-06-22T13:45:29;33.20;77.80
1075;DHT22;526;51.392;12.448;2023-06-22T13:47:55;33.30;77.50
1075;DHT22;526;51.392;12.448;2023-06-22T13:50:20;33.30;77.60
1075;DHT22;526;51.392;12.448;2023-06-22T13:52:46;33.40;77.30
1075;DHT22;526;51.392;12.448;2023-06-22T13:55:11;33.40;76.70
1075;DHT22;526;51.392;12.448;2023-06-22T13:57:39;33.40;76.20
1075;DHT22;526;51.392;12.448;2023-06-22T14:00:06;33.40;76.90
1075;DHT22;526;51.392;12.448;2023-06-22T14:02:32;33.30;76.60
1075;DHT22;526;51.392;12.448;2023-06-22T14:04:57;33.20;76.80
1075;DHT22;526;51.392;12.448;2023-06-22T14:07:23;33.10;77.50
1075;DHT22;526;51.392;12.448;2023-06-22T14:09:49;33.20;78.00
1075;DHT22;526;51.392;12.448;2023-06-22T14:12:15;33.30;77.80
1075;DHT22;526;51.392;12.448;2023-06-22T14:14:43;33.30;77.60
1075;DHT22;526;51.392;12.448;2023-06-22T14:17:08;33.50;78.10
1075;DHT22;526;51.392;12.448;2023-06-22T14:19:34;33.60;76.90
1075;DHT22;526;51.392;12.448;2023-06-22T14:21:59;33.70;77.30
1075;DHT22;526;51.392;12.448;2023-06-22T14:24:25;33.80;77.10
1075;DHT22;526;51.392;12.448;2023-06-22T14:26:50;33.80;76.10
1075;DHT22;526;51.392;12.448;2023-06-22T14:29:16;33.90;76.70
1075;DHT22;526;51.392;12.448;2023-06-22T14:31:45;34.00;76.50
1075;DHT22;526;51.392;12.448;2023-06-22T14:34:10;34.00;76.50
1075;DHT22;526;51.392;12.448;2023-06-22T14:36:36;34.10;75.60
1075;DHT22;526;51.392;12.448;2023-06-22T14:39:01;34.10;75.40
1075;DHT22;526;51.392;12.448;2023-06-22T14:41:27;33.90;75.10
1075;DHT22;526;51.392;12.448;2023-06-22T14:43:53;33.80;76.20
1075;DHT22;526;51.392;12.448;2023-06-22T14:46:18;33.80;76.20
1075;DHT22;526;51.392;12.448;2023-06-22T14:48:44;33.80;76.40
1075;DHT22;526;51.392;12.448;2023-06-22T14:51:11;33.70;76.10
1075;DHT22;526;51.392;12.448;2023-06-22T14:53:37;33.50;76.40
1075;DHT22;526;51.392;12.448;2023-06-22T14:56:02;33.40;76.60
1075;DHT22;526;51.392;12.448;2023-06-22T14:58:32;33.30;76.90
1075;DHT22;526;51.392;12.448;2023-06-22T15:01:04;33.20;77.80
1075;DHT22;526;51.392;12.448;2023-06-22T15:03:33;33.00;78.50
1075;DHT22;526;51.392;12.448;2023-06-22T15:06:01;32.90;77.80
1075;DHT22;526;51.392;12.448;2023-06-22T15:08:26;32.80;78.20
1075;DHT22;526;51.392;12.448;2023-06-22T15:10:52;32.70;77.80
1075;DHT22;526;51.392;12.448;2023-06-22T15:13:18;32.50;77.60
1075;DHT22;526;51.392;12.448;2023-06-22T15:15:47;32.30;78.50
1075;DHT22;526;51.392;12.448;2023-06-22T15:18:14;32.30;78.60
1075;DHT22;526;51.392;12.448;2023-06-22T15:20:39;32.20;78.90
1075;DHT22;526;51.392;12.448;2023-06-22T15:23:06;32.40;79.30
1075;DHT22;526;51.392;12.448;2023-06-22T15:25:32;32.40;79.30
1075;DHT22;526;51.392;12.448;2023-06-22T15:27:57;32.40;79.70
1075;DHT22;526;51.392;12.448;2023-06-22T15:30:23;32.40;79.40
1075;DHT22;526;51.392;12.448;2023-06-22T15:32:49;32.30;79.30
1075;DHT22;526;51.392;12.448;2023-06-22T15:35:14;32.20;78.90
1075;DHT22;526;51.392;12.448;2023-06-22T15:37:42;32.10;79.40
1075;DHT22;526;51.392;12.448;2023-06-22T15:40:08;32.00;79.00
1075;DHT22;526;51.392;12.448;2023-06-22T15:42:34;31.90;80.00
1075;DHT22;526;51.392;12.448;2023-06-22T15:45:00;32.10;80.00
1075;DHT22;526;51.392;12.448;2023-06-22T15:47:25;32.20;79.60
1075;DHT22;526;51.392;12.448;2023-06-22T15:49:51;32.30;78.40
1075;DHT22;526;51.392;12.448;2023-06-22T15:52:20;32.40;78.20
1075;DHT22;526;51.392;12.448;2023-06-22T15:54:45;32.30;78.50
1075;DHT22;526;51.392;12.448;2023-06-22T15:57:11;32.30;78.10
1075;DHT22;526;51.392;12.448;2023-06-22T15:59:41;32.20;78.10
1075;DHT22;526;51.392;12.448;2023-06-22T16:02:08;32.20;78.30
1075;DHT22;526;51.392;12.448;2023-06-22T16:04:33;32.20;78.30
1075;DHT22;526;51.392;12.448;2023-06-22T16:06:59;32.20;78.70
1075;DHT22;526;51.392;12.448;2023-06-22T16:09:25;32.10;78.80
1075;DHT22;526;51.392;12.448;2023-06-22T16:11:51;32.00;79.30
1075;DHT22;526;51.392;12.448;2023-06-22T16:14:17;32.00;79.40
1075;DHT22;526;51.392;12.448;2023-06-22T16:16:42;32.00;79.60
1075;DHT22;526;51.392;12.448;2023-06-22T16:19:08;32.00;79.30
1075;DHT22;526;51.392;12.448;2023-06-22T16:21:33;32.00;79.20
1075;DHT22;526;51.392;12.448;2023-06-22T16:23:59;31.90;79.30
1075;DHT22;526;51.392;12.448;2023-06-22T16:26:24;31.80;79.60
1075;DHT22;526;51.392;12.448;2023-06-22T16:28:50;31.70;79.50
1075;DHT22;526;51.392;12.448;2023-06-22T16:31:16;31.60;79.60
1075;DHT22;526;51.392;12.448;2023-06-22T16:33:41;31.50;79.90
1075;DHT22;526;51.392;12.448;2023-06-22T16:36:16;31.40;80.10
1075;DHT22;526;51.392;12.448;2023-06-22T16:38:42;31.30;80.60
1075;DHT22;526;51.392;12.448;2023-06-22T16:41:08;31.20;81.20
1075;DHT22;526;51.392;12.448;2023-06-22T16:43:37;31.10;81.10
1075;DHT22;526;51.392;12.448;2023-06-22T16:46:02;31.10;81.30
1075;DHT22;526;51.392;12.448;2023-06-22T16:48:28;31.00;81.30
1075;DHT22;526;51.392;12.448;2023-06-22T16:50:53;30.90;81.10
1075;DHT22;526;51.392;12.448;2023-06-22T16:53:19;30.80;81.40
1075;DHT22;526;51.392;12.448;2023-06-22T16:55:49;30.70;81.60
1075;DHT22;526;51.392;12.448;2023-06-22T16:58:14;30.70;81.70
1075;DHT22;526;51.392;12.448;2023-06-22T17:00:43;30.60;81.90
1075;DHT22;526;51.392;12.448;2023-06-22T17:03:12;30.50;82.20
1075;DHT22;526;51.392;12.448;2023-06-22T17:05:41;30.40;82.40
1075;DHT22;526;51.392;12.448;2023-06-22T17:08:09;30.40;82.30
1075;DHT22;526;51.392;12.448;2023-06-22T17:10:38;30.30;82.50
1075;DHT22;526;51.392;12.448;2023-06-22T17:13:05;30.30;82.60
1075;DHT22;526;51.392;12.448;2023-06-22T17:15:31;30.20;82.80
1075;DHT22;526;51.392;12.448;2023-06-22T17:17:57;30.20;82.90
1075;DHT22;526;51.392;12.448;2023-06-22T17:20:23;30.10;83.20
1075;DHT22;526;51.392;12.448;2023-06-22T17:22:50;30.10;83.20
1075;DHT22;526;51.392;12.448;2023-06-22T17:25:17;30.00;83.30
1075;DHT22;526;51.392;12.448;2023-06-22T17:27:47;30.00;83.50
1075;DHT22;526;51.392;12.448;2023-06-22T17:30:14;30.00;83.80
1075;DHT22;526;51.392;12.448;2023-06-22T17:32:46;30.00;83.50
1075;DHT22;526;51.392;12.448;2023-06-22T17:35:11;29.90;83.80
1075;DHT22;526;51.392;12.448;2023-06-22T17:37:54;29.90;83.90
1075;DHT22;526;51.392;12.448;2023-06-22T17:40:22;29.90;84.00
1075;DHT22;526;51.392;12.448;2023-06-22T17:42:49;29.80;84.40
1075;DHT22;526;51.392;12.448;2023-06-22T17:45:22;29.80;84.50
1075;DHT22;526;51.392;12.448;2023-06-22T17:47:53;29.80;84.30
1075;DHT22;526;51.392;12.448;2023-06-22T17:50:22;29.80;84.40
1075;DHT22;526;51.392;12.448;2023-06-22T17:52:52;29.70;84.70
1075;DHT22;526;51.392;12.448;2023-06-22T17:55:21;29.70;84.70
1075;DHT22;526;51.392;12.448;2023-06-22T17:57:49;29.60;85.00
1075;DHT22;526;51.392;12.448;2023-06-22T18:00:19;29.60;84.90
1075;DHT22;526;51.392;12.448;2023-06-22T18:02:45;29.50;85.00
1075;DHT22;526;51.392;12.448;2023-06-22T18:05:11;29.40;85.10
1075;DHT22;526;51.392;12.448;2023-06-22T18:07:37;29.40;85.20
1075;DHT22;526;51.392;12.448;2023-06-22T18:10:07;29.30;85.50
1075;DHT22;526;51.392;12.448;2023-06-22T18:12:34;29.30;85.60
1075;DHT22;526;51.392;12.448;2023-06-22T18:15:00;29.20;85.40
1075;DHT22;526;51.392;12.448;2023-06-22T18:17:26;29.20;85.40
1075;DHT22;526;51.392;12.448;2023-06-22T18:19:54;29.20;85.60
1075;DHT22;526;51.392;12.448;2023-06-22T18:22:20;29.10;85.70
1075;DHT22;526;51.392;12.448;2023-06-22T18:24:50;29.10;85.90
1075;DHT22;526;51.392;12.448;2023-06-22T18:27:16;29.00;86.00
1075;DHT22;526;51.392;12.448;2023-06-22T18:29:42;29.00;86.00
1075;DHT22;526;51.392;12.448;2023-06-22T18:32:08;28.90;86.20
1075;DHT22;526;51.392;12.448;2023-06-22T18:34:34;28.90;86.40
1075;DHT22;526;51.392;12.448;2023-06-22T18:37:02;28.80;86.30
1075;DHT22;526;51.392;12.448;2023-06-22T18:39:29;28.80;86.50
1075;DHT22;526;51.392;12.448;2023-06-22T18:41:59;28.80;86.60
1075;DHT22;526;51.392;12.448;2023-06-22T18:44:28;28.80;86.70
1075;DHT22;526;51.392;12.448;2023-06-22T18:47:01;28.70;86.80
1075;DHT22;526;51.392;12.448;2023-06-22T18:54:48;28.60;87.00
1075;DHT22;526;51.392;12.448;2023-06-22T18:57:25;28.60;87.20
1075;DHT22;526;51.392;12.448;2023-06-22T18:59:58;28.60;87.20
1075;DHT22;526;51.392;12.448;2023-06-22T19:15:59;28.40;87.90
1075;DHT22;526;51.392;12.448;2023-06-22T19:18:33;28.30;88.10
1075;DHT22;526;51.392;12.448;2023-06-22T19:21:20;28.30;88.20
1075;DHT22;526;51.392;12.448;2023-06-22T19:23:46;28.20;88.30
1075;DHT22;526;51.392;12.448;2023-06-22T19:26:14;28.20;88.40
1075;DHT22;526;51.392;12.448;2023-06-22T19:28:50;28.10;88.80
1075;DHT22;526;51.392;12.448;2023-06-22T19:31:18;28.10;88.70
1075;DHT22;526;51.392;12.448;2023-06-22T19:33:45;28.10;89.00
1075;DHT22;526;51.392;12.448;2023-06-22T19:36:11;28.10;89.10
1075;DHT22;526;51.392;12.448;2023-06-22T19:38:40;28.00;89.20
1075;DHT22;526;51.392;12.448;2023-06-22T19:41:09;28.00;89.40
1075;DHT22;526;51.392;12.448;2023-06-22T19:43:35;27.90;89.50
1075;DHT22;526;51.392;12.448;2023-06-22T19:46:01;27.90;89.70
1075;DHT22;526;51.392;12.448;2023-06-22T19:48:30;27.80;89.90
1075;DHT22;526;51.392;12.448;2023-06-22T19:51:02;27.80;90.00
1075;DHT22;526;51.392;12.448;2023-06-22T19:53:28;27.80;90.10
1075;DHT22;526;51.392;12.448;2023-06-22T19:55:53;27.70;90.30
1075;DHT22;526;51.392;12.448;2023-06-22T19:58:20;27.70;90.40
1075;DHT22;526;51.392;12.448;2023-06-22T20:00:46;27.70;90.40
1075;DHT22;526;51.392;12.448;2023-06-22T20:03:28;27.70;90.60
1075;DHT22;526;51.392;12.448;2023-06-22T20:05:55;27.70;91.00
1075;DHT22;526;51.392;12.448;2023-06-22T20:08:21;27.60;91.60
1075;DHT22;526;51.392;12.448;2023-06-22T20:10:47;27.60;92.00
1075;DHT22;526;51.392;12.448;2023-06-22T20:13:15;27.50;92.40
1075;DHT22;526;51.392;12.448;2023-06-22T20:15:45;27.40;93.00
1075;DHT22;526;51.392;12.448;2023-06-22T20:18:12;27.30;93.30
1075;DHT22;526;51.392;12.448;2023-06-22T20:20:43;27.30;93.70
1075;DHT22;526;51.392;12.448;2023-06-22T20:23:10;27.10;94.10